createdAt,value
2023-03-18T00:04:20.329Z,100320.66
2023-03-18T00:09:21.878Z,100335.06
2023-03-18T00:14:24.154Z,100335.66
2023-03-18T00:19:26.593Z,100345.13
2023-03-18T00:24:29.372Z,100339.88
2023-03-18T00:29:31.124Z,100334.44
2023-03-18T00:34:32.917Z,100332.66
2023-03-18T00:39:36.537Z,100319.75
2023-03-18T00:44:38.250Z,100320.59
2023-03-18T00:49:39.785Z,100332.28
2023-03-18T00:54:41.583Z,100343.63
2023-03-18T00:59:44.156Z,100351.69
2023-03-18T01:04:47.026Z,100342.00
2023-03-18T01:09:49.351Z,100328.91
2023-03-18T01:14:51.013Z,100337.22
2023-03-18T01:19:53.066Z,100320.84
2023-03-18T01:24:54.810Z,100331.94
2023-03-18T01:30:05.252Z,100329.88
2023-03-18T01:35:07.515Z,100318.97
2023-03-18T01:40:12.043Z,100326.44
2023-03-18T01:45:24.714Z,100328.00
2023-03-18T01:50:34.247Z,100312.09
2023-03-18T01:55:38.703Z,100302.16
2023-03-18T02:00:44.521Z,100306.59
2023-03-18T02:05:46.201Z,100319.72
2023-03-18T02:10:48.955Z,100309.47
2023-03-18T02:15:56.912Z,100314.72
2023-03-18T02:21:20.354Z,100310.25
2023-03-18T02:26:36.076Z,100300.50
2023-03-18T02:31:40.736Z,100301.91
2023-03-18T02:36:42.428Z,100296.59
2023-03-18T02:41:45.155Z,100302.41
2023-03-18T02:46:47.541Z,100304.16
2023-03-18T02:51:50.178Z,100311.50
2023-03-18T02:56:52.620Z,100306.97
2023-03-18T03:01:55.366Z,100314.09
2023-03-18T03:06:59.329Z,100322.06
2023-03-18T03:12:14.196Z,100325.91
2023-03-18T03:17:22.208Z,100320.50
2023-03-18T03:22:25.762Z,100328.44
2023-03-18T03:27:30.070Z,100333.97
2023-03-18T03:32:31.658Z,100336.41
2023-03-18T03:37:33.265Z,100339.09
2023-03-18T03:42:34.937Z,100341.91
2023-03-18T03:47:37.001Z,100342.38
2023-03-18T03:52:39.702Z,100344.22
2023-03-18T03:57:41.446Z,100347.16
2023-03-18T04:02:44.506Z,100356.72
2023-03-18T04:07:47.863Z,100357.72
2023-03-18T04:12:49.781Z,100368.25
2023-03-18T04:17:51.489Z,100376.72
2023-03-18T04:22:54.075Z,100377.50
2023-03-18T04:27:58.225Z,100390.56
2023-03-18T04:33:00.475Z,100380.69
2023-03-18T04:38:02.598Z,100395.03
2023-03-18T04:43:04.458Z,100398.34
2023-03-18T04:48:06.554Z,100405.03
2023-03-18T04:53:12.978Z,100407.47
2023-03-18T04:58:15.869Z,100406.00
2023-03-18T05:03:25.902Z,100407.72
2023-03-18T05:08:28.093Z,100402.50
2023-03-18T05:13:30.430Z,100408.34
2023-03-18T05:18:32.471Z,100408.34
2023-03-18T05:23:37.272Z,100409.88
2023-03-18T05:28:39.247Z,100409.97
2023-03-18T05:33:56.325Z,100409.53
2023-03-18T05:39:00.705Z,100406.06
2023-03-18T05:44:03.094Z,100411.06
2023-03-18T05:49:09.707Z,100418.16
2023-03-18T05:54:40.268Z,100413.81
2023-03-18T05:59:41.964Z,100423.63
2023-03-18T06:04:44.796Z,100426.94
2023-03-18T06:09:48.540Z,100439.00
2023-03-18T06:14:50.345Z,100447.31
2023-03-18T06:19:52.309Z,100446.81
2023-03-18T06:24:54.351Z,100461.50
2023-03-18T06:29:56.294Z,100451.59
2023-03-18T06:34:58.059Z,100449.19
2023-03-18T06:40:00.436Z,100448.00
2023-03-18T06:45:02.366Z,100462.88
2023-03-18T06:50:18.143Z,100468.53
2023-03-18T06:55:20.072Z,100469.81
2023-03-18T07:00:22.494Z,100473.94
2023-03-18T07:05:24.270Z,100483.16
2023-03-18T07:10:28.700Z,100477.56
2023-03-18T07:15:38.321Z,100481.06
2023-03-18T07:20:40.525Z,100482.22
2023-03-18T07:25:42.308Z,100496.22
2023-03-18T07:30:43.875Z,100499.06
2023-03-18T07:35:45.491Z,100510.94
2023-03-18T07:40:47.047Z,100514.47
2023-03-18T07:45:48.730Z,100521.19
2023-03-18T07:50:50.385Z,100514.25
2023-03-18T07:55:51.927Z,100518.44
2023-03-18T08:00:53.440Z,100534.97
2023-03-18T08:05:55.171Z,100531.59
2023-03-18T08:10:58.266Z,100538.63
2023-03-18T08:15:59.788Z,100539.09
2023-03-18T08:21:01.416Z,100541.41
2023-03-18T08:26:03.736Z,100537.03
2023-03-18T08:31:05.677Z,100547.88
2023-03-18T08:36:08.334Z,100549.28
2023-03-18T08:41:09.983Z,100563.66
2023-03-18T08:46:11.565Z,100563.06
2023-03-18T08:51:13.228Z,100560.31
2023-03-18T08:56:14.898Z,100563.72
2023-03-18T09:01:17.354Z,100556.41
2023-03-18T09:06:18.905Z,100544.41
2023-03-18T09:11:20.479Z,100541.63
2023-03-18T09:16:22.209Z,100548.69
2023-03-18T09:21:23.827Z,100552.28
2023-03-18T09:26:25.370Z,100556.25
2023-03-18T09:31:26.888Z,100552.00
2023-03-18T09:36:28.502Z,100558.44
2023-03-18T09:41:41.560Z,100545.94
2023-03-18T09:47:05.024Z,100555.28
2023-03-18T09:52:32.224Z,100551.53
2023-03-18T09:57:39.088Z,100562.06
2023-03-18T10:02:45.902Z,100558.66
2023-03-18T10:07:53.259Z,100563.94
2023-03-18T10:13:50.528Z,100546.88
2023-03-18T10:18:52.207Z,100560.75
2023-03-18T10:24:23.922Z,100553.34
2023-03-18T10:29:38.230Z,100552.72
2023-03-18T10:34:41.140Z,100553.06
2023-03-18T10:39:42.871Z,100552.16
2023-03-18T10:44:45.500Z,100540.91
2023-03-18T10:50:12.941Z,100556.66
2023-03-18T10:55:23.721Z,100548.41
2023-03-18T11:00:31.689Z,100559.31
2023-03-18T11:05:37.296Z,100557.03
2023-03-18T11:10:44.998Z,100561.94
2023-03-18T11:15:52.388Z,100562.41
2023-03-18T11:20:59.755Z,100558.53
2023-03-18T11:26:02.404Z,100553.19
2023-03-18T11:31:06.019Z,100568.63
2023-03-18T11:36:13.376Z,100559.91
2023-03-18T11:41:23.907Z,100558.69
2023-03-18T11:46:40.528Z,100548.41
2023-03-18T11:52:14.133Z,100540.97
2023-03-18T11:57:21.380Z,100546.59
2023-03-18T12:02:40.802Z,100549.88
2023-03-18T12:07:44.919Z,100541.81
2023-03-18T12:13:04.501Z,100534.06
2023-03-18T12:18:36.983Z,100527.84
2023-03-18T12:24:21.582Z,100508.13
2023-03-18T12:29:42.785Z,100511.56
2023-03-18T12:34:59.524Z,100521.59
2023-03-18T12:40:49.893Z,100511.50
2023-03-18T12:45:57.950Z,100510.81
2023-03-18T12:51:06.119Z,100507.56
2023-03-18T12:56:18.025Z,100493.53
2023-03-18T13:01:31.860Z,100491.25
2023-03-18T13:06:44.366Z,100484.56
2023-03-18T13:11:59.099Z,100484.09
2023-03-18T13:17:02.611Z,100478.75
2023-03-18T13:22:25.969Z,100484.88
2023-03-18T13:27:50.893Z,100486.59
2023-03-18T13:33:15.934Z,100485.13
2023-03-18T13:38:37.518Z,100487.47
2023-03-18T13:43:42.996Z,100476.22
2023-03-18T13:48:44.722Z,100479.81
2023-03-18T13:53:48.026Z,100482.44
2023-03-18T13:58:49.629Z,100488.22
2023-03-18T14:03:51.109Z,100483.41
2023-03-18T14:08:53.762Z,100475.88
2023-03-18T14:13:57.992Z,100482.03
2023-03-18T14:19:10.007Z,100477.25
2023-03-18T14:24:12.525Z,100471.06
2023-03-18T14:29:13.997Z,100469.66
2023-03-18T14:34:18.541Z,100464.59
2023-03-18T14:39:31.578Z,100455.22
2023-03-18T14:44:54.516Z,100452.53
2023-03-18T14:50:01.851Z,100442.38
2023-03-18T14:55:15.980Z,100443.81
2023-03-18T15:00:19.166Z,100437.91
2023-03-18T15:05:20.715Z,100443.69
2023-03-18T15:10:29.251Z,100439.59
2023-03-18T15:15:31.183Z,100440.00
2023-03-18T15:20:35.532Z,100425.84
2023-03-18T15:25:39.167Z,100430.41
2023-03-18T15:30:50.911Z,100431.47
2023-03-18T15:36:07.562Z,100427.47
2023-03-18T15:41:11.177Z,100426.66
2023-03-18T15:46:29.963Z,100436.47
2023-03-18T15:51:45.756Z,100443.13
2023-03-18T15:56:49.227Z,100444.06
2023-03-18T16:01:50.829Z,100438.63
2023-03-18T16:06:52.404Z,100445.09
2023-03-18T16:12:00.517Z,100444.28
2023-03-18T16:17:02.050Z,100445.06
2023-03-18T16:22:06.492Z,100452.91
2023-03-18T16:27:20.470Z,100453.16
2023-03-18T16:32:22.136Z,100460.19
2023-03-18T16:37:25.944Z,100462.56
2023-03-18T16:42:27.552Z,100468.75
2023-03-18T16:47:29.126Z,100469.09
2023-03-18T16:52:30.634Z,100473.31
2023-03-18T16:57:32.126Z,100473.72
2023-03-18T17:02:35.115Z,100481.34
2023-03-18T17:07:36.633Z,100470.63
2023-03-18T17:12:39.666Z,100482.28
2023-03-18T17:17:41.446Z,100483.91
2023-03-18T17:22:43.664Z,100484.00
2023-03-18T17:27:55.207Z,100481.53
2023-03-18T17:32:56.765Z,100483.91
2023-03-18T17:37:58.316Z,100479.47
2023-03-18T17:42:59.891Z,100491.81
2023-03-18T17:48:12.790Z,100490.69
2023-03-18T17:53:44.054Z,100500.97
2023-03-18T17:58:50.520Z,100516.16
2023-03-18T18:03:59.266Z,100518.31
2023-03-18T18:09:00.937Z,100513.25
2023-03-18T18:14:26.792Z,100506.47
2023-03-18T18:19:28.275Z,100501.91
2023-03-18T18:24:31.149Z,100513.66
2023-03-18T18:29:34.938Z,100513.56
2023-03-18T18:34:36.747Z,100521.56
2023-03-18T18:39:38.264Z,100518.31
2023-03-18T18:44:39.856Z,100528.53
2023-03-18T18:49:41.378Z,100528.03
2023-03-18T18:54:43.236Z,100523.41
2023-03-18T18:59:44.768Z,100518.34
2023-03-18T19:04:46.267Z,100526.63
2023-03-18T19:09:47.837Z,100524.16
2023-03-18T19:14:49.316Z,100524.56
2023-03-18T19:19:51.907Z,100528.84
2023-03-18T19:24:53.610Z,100539.81
2023-03-18T19:30:00.668Z,100543.84
2023-03-18T19:35:02.332Z,100538.16
2023-03-18T19:40:20.895Z,100549.50
2023-03-18T19:45:22.632Z,100553.56
2023-03-18T19:50:24.157Z,100555.56
2023-03-18T19:55:25.873Z,100557.00
2023-03-18T20:00:27.414Z,100561.06
2023-03-18T20:05:28.928Z,100556.78
2023-03-18T20:10:31.196Z,100568.13
2023-03-18T20:15:33.096Z,100575.63
2023-03-18T20:20:34.849Z,100570.56
2023-03-18T20:25:39.199Z,100582.50
2023-03-18T20:30:41.104Z,100580.25
2023-03-18T20:35:44.814Z,100580.28
2023-03-18T20:40:46.376Z,100585.53
2023-03-18T20:45:48.640Z,100583.91
2023-03-18T20:50:51.806Z,100580.06
2023-03-18T20:55:53.342Z,100576.22
2023-03-18T21:00:55.079Z,100580.91
2023-03-18T21:05:58.805Z,100587.78
2023-03-18T21:11:02.012Z,100584.53
2023-03-18T21:16:06.184Z,100576.84
2023-03-18T21:21:17.354Z,100583.91
2023-03-18T21:26:18.872Z,100578.66
2023-03-18T21:31:24.300Z,100576.03
2023-03-18T21:36:25.875Z,100577.84
2023-03-18T21:41:29.318Z,100573.19
2023-03-18T21:46:30.930Z,100573.78
2023-03-18T21:51:39.180Z,100573.41
2023-03-18T21:56:40.967Z,100570.38
2023-03-18T22:01:42.585Z,100582.50
2023-03-18T22:06:44.142Z,100581.28
2023-03-18T22:11:45.692Z,100576.03
2023-03-18T22:16:47.215Z,100571.16
2023-03-18T22:21:48.817Z,100562.25
2023-03-18T22:26:50.318Z,100566.09
2023-03-18T22:31:51.924Z,100568.34
2023-03-18T22:36:53.448Z,100572.59
2023-03-18T22:41:54.964Z,100579.06
2023-03-18T22:46:56.628Z,100563.88
2023-03-18T22:51:58.170Z,100570.34
2023-03-18T22:56:59.781Z,100559.78
2023-03-18T23:02:01.392Z,100565.78
2023-03-18T23:07:03.002Z,100560.81
2023-03-18T23:12:04.706Z,100561.31
2023-03-18T23:17:06.401Z,100558.13
2023-03-18T23:22:14.044Z,100570.47
2023-03-18T23:27:15.565Z,100575.13
2023-03-18T23:32:18.420Z,100587.09
2023-03-18T23:37:20.030Z,100596.47
2023-03-18T23:42:21.612Z,100584.94
2023-03-18T23:47:23.157Z,100591.19
2023-03-18T23:52:24.752Z,100588.78
2023-03-18T23:57:27.540Z,100594.00
